Terminal Aerodrome Forecast
Issued by NWS Binghamton, NY

Home | Current Version | Previous Version | Text Only | Print | Product List | Glossary On
Versions: 1 2 3 4 5 6 7 8 9 10 11 12
000
FTUS41 KBGM 292330
TAFAVP
TAF
KAVP 292330Z 3000/3024 10003KT P6SM SKC
      TEMPO 3009/3012 3SM BR SCT008
     FM301500 29005KT P6SM SCT250=

USA.gov is the U.S. government's official web portal to all federal, state and local government web resources and services.